createdAt,value
2019-02-20T00:02:55.739Z,74.62
2019-02-20T00:07:57.880Z,74.79
2019-02-20T00:13:01.503Z,74.82
2019-02-20T00:18:04.622Z,75.59
2019-02-20T00:23:08.154Z,74.79
2019-02-20T00:28:10.231Z,74.51
2019-02-20T00:33:13.729Z,75.06
2019-02-20T00:38:15.744Z,75.38
2019-02-20T00:43:18.822Z,75.34
2019-02-20T00:48:41.180Z,75.29
2019-02-20T00:53:48.374Z,74.77
2019-02-20T00:58:50.371Z,74.89
2019-02-20T01:03:52.570Z,74.94
2019-02-20T01:08:54.739Z,75.62
2019-02-20T01:13:56.730Z,75.35
2019-02-20T01:19:02.720Z,75.96
2019-02-20T01:24:04.714Z,76.12
2019-02-20T01:29:06.764Z,76.46
2019-02-20T01:34:08.765Z,76.56
2019-02-20T01:39:11.969Z,76.57
2019-02-20T01:44:14.003Z,76.22
2019-02-20T01:49:16.424Z,76.28
2019-02-20T01:54:18.447Z,76.48
2019-02-20T01:59:20.439Z,76.83
2019-02-20T02:04:22.655Z,77.60
2019-02-20T02:09:24.885Z,77.50
2019-02-20T02:14:28.937Z,78.31
2019-02-20T02:19:31.201Z,78.67
2019-02-20T02:24:33.204Z,78.07
2019-02-20T02:29:35.449Z,78.78
2019-02-20T02:34:37.456Z,79.21
2019-02-20T02:39:40.324Z,78.44
2019-02-20T02:44:42.634Z,78.55
2019-02-20T02:49:44.646Z,78.57
2019-02-20T02:54:49.745Z,78.18
2019-02-20T02:59:51.926Z,78.52
2019-02-20T03:04:55.375Z,78.95
2019-02-20T03:09:57.411Z,78.43
2019-02-20T03:14:59.423Z,78.84
2019-02-20T03:20:01.728Z,78.73
2019-02-20T03:25:03.821Z,78.75
2019-02-20T03:30:06.169Z,78.81
2019-02-20T03:35:09.302Z,78.75
2019-02-20T03:40:13.637Z,78.68
2019-02-20T03:45:20.601Z,78.30
2019-02-20T03:50:22.857Z,78.78
2019-02-20T03:55:24.876Z,78.68
2019-02-20T04:00:27.076Z,79.15
2019-02-20T04:05:31.870Z,78.47
2019-02-20T04:10:33.870Z,78.92
2019-02-20T04:15:35.974Z,79.05
2019-02-20T04:20:38.058Z,78.88
2019-02-20T04:25:40.119Z,79.34
2019-02-20T04:30:42.371Z,79.32
2019-02-20T04:35:44.383Z,79.66
2019-02-20T04:40:46.605Z,79.67
2019-02-20T04:45:48.634Z,79.26
2019-02-20T04:50:54.530Z,79.39
2019-02-20T04:55:56.552Z,78.69
2019-02-20T05:00:58.815Z,78.16
2019-02-20T05:06:00.827Z,77.76
2019-02-20T05:11:02.841Z,77.89
2019-02-20T05:16:04.861Z,77.69
2019-02-20T05:21:07.161Z,77.32
2019-02-20T05:26:09.216Z,76.47
2019-02-20T05:31:11.348Z,76.40
2019-02-20T05:36:13.373Z,76.00
2019-02-20T05:41:15.420Z,76.13
2019-02-20T05:46:17.414Z,75.84
2019-02-20T05:51:20.693Z,75.89
2019-02-20T05:56:22.706Z,75.62
2019-02-20T06:01:24.804Z,74.94
2019-02-20T06:06:26.835Z,74.10
2019-02-20T06:11:28.832Z,75.37
2019-02-20T06:16:31.403Z,73.62
2019-02-20T06:21:34.764Z,74.08
2019-02-20T06:26:36.735Z,74.50
2019-02-20T06:31:38.807Z,74.09
2019-02-20T06:36:40.806Z,73.91
2019-02-20T06:41:42.813Z,74.00
2019-02-20T06:46:44.831Z,73.48
2019-02-20T06:51:49.141Z,73.40
2019-02-20T06:56:51.170Z,73.45
2019-02-20T07:01:54.533Z,73.12
2019-02-20T07:07:21.205Z,73.30
2019-02-20T07:12:52.423Z,73.29
2019-02-20T07:18:23.249Z,73.03
2019-02-20T07:23:54.416Z,73.00
2019-02-20T07:29:46.443Z,72.71
2019-02-20T07:34:48.529Z,72.02
2019-02-20T07:39:50.546Z,72.37
2019-02-20T07:44:55.377Z,72.04
2019-02-20T07:49:57.424Z,71.15
2019-02-20T07:54:59.421Z,71.29
2019-02-20T08:00:01.470Z,70.75
2019-02-20T08:05:03.832Z,70.75
2019-02-20T08:10:08.174Z,70.67
2019-02-20T08:15:10.957Z,69.73
2019-02-20T08:20:13.057Z,69.48
2019-02-20T08:25:22.903Z,69.73
2019-02-20T08:30:21.550Z,69.12
2019-02-20T08:35:23.547Z,68.96
2019-02-20T08:40:26.603Z,68.41
2019-02-20T08:45:28.624Z,68.05
2019-02-20T08:50:30.786Z,67.17
2019-02-20T08:55:32.785Z,66.47
2019-02-20T09:00:35.033Z,66.65
2019-02-20T09:05:37.101Z,66.01
2019-02-20T09:10:39.174Z,65.75
2019-02-20T09:15:43.709Z,64.53
2019-02-20T09:20:47.056Z,67.13
2019-02-20T09:25:49.064Z,66.03
2019-02-20T09:30:51.273Z,66.28
2019-02-20T09:35:54.301Z,65.98
2019-02-20T09:40:56.403Z,65.24
2019-02-20T09:46:01.789Z,65.61
2019-02-20T09:51:07.102Z,64.49
2019-02-20T09:56:09.154Z,65.52
2019-02-20T10:01:12.661Z,65.19
2019-02-20T10:06:15.760Z,65.06
2019-02-20T10:11:18.962Z,64.37
2019-02-20T10:16:21.048Z,63.72
2019-02-20T10:21:25.845Z,62.72
2019-02-20T10:26:28.075Z,61.29
2019-02-20T10:31:30.346Z,61.43
2019-02-20T10:36:32.406Z,60.64
2019-02-20T10:41:38.478Z,59.20
2019-02-20T10:46:40.506Z,60.19
2019-02-20T10:51:42.729Z,57.87
2019-02-20T10:56:44.760Z,58.89
2019-02-20T11:01:46.847Z,57.28
2019-02-20T11:06:49.954Z,56.15
2019-02-20T11:11:52.269Z,56.46
2019-02-20T11:16:54.290Z,54.10
2019-02-20T11:21:57.846Z,55.33
2019-02-20T11:26:59.912Z,54.15
2019-02-20T11:32:02.271Z,53.49
2019-02-20T11:37:04.282Z,53.08
2019-02-20T11:42:06.564Z,53.42
2019-02-20T11:47:13.412Z,54.75
2019-02-20T11:52:15.421Z,54.73
2019-02-20T11:57:17.447Z,54.27
2019-02-20T12:02:21.960Z,54.30
2019-02-20T12:07:24.104Z,54.84
2019-02-20T12:12:26.106Z,53.13
2019-02-20T12:17:28.139Z,53.36
2019-02-20T12:22:30.555Z,53.36
2019-02-20T12:27:34.043Z,55.20
2019-02-20T12:32:36.066Z,53.60
2019-02-20T12:37:40.650Z,54.99
2019-02-20T12:42:42.686Z,53.81
2019-02-20T12:47:47.044Z,51.81
2019-02-20T12:52:49.150Z,51.81
2019-02-20T12:57:51.175Z,52.72
2019-02-20T13:02:53.466Z,52.83
2019-02-20T13:07:55.983Z,53.84
2019-02-20T13:12:58.340Z,53.84
2019-02-20T13:18:00.461Z,51.90
2019-02-20T13:23:02.881Z,54.25
2019-02-20T13:28:04.919Z,54.86
2019-02-20T13:33:07.366Z,55.82
2019-02-20T13:38:09.375Z,54.51
2019-02-20T13:43:11.639Z,54.75
2019-02-20T13:48:13.711Z,53.63
2019-02-20T13:53:15.924Z,55.88
2019-02-20T13:58:17.947Z,54.24
2019-02-20T14:03:23.460Z,56.25
2019-02-20T14:08:25.511Z,53.89
2019-02-20T14:13:27.608Z,54.57
2019-02-20T14:18:29.653Z,54.57
2019-02-20T14:23:35.926Z,52.42
2019-02-20T14:28:38.629Z,54.37
2019-02-20T14:33:40.788Z,52.05
2019-02-20T14:38:42.863Z,54.26
2019-02-20T14:43:45.022Z,54.26
2019-02-20T14:48:47.401Z,54.43
2019-02-20T14:53:49.782Z,54.49
2019-02-20T14:58:54.089Z,56.20
2019-02-20T15:03:56.558Z,53.07
2019-02-20T15:09:01.110Z,55.35
2019-02-20T15:14:03.358Z,53.88
2019-02-20T15:19:05.486Z,54.92
2019-02-20T15:24:07.515Z,55.19
2019-02-20T15:29:09.527Z,55.50
2019-02-20T15:34:11.888Z,56.57
2019-02-20T15:39:13.951Z,55.04
2019-02-20T15:44:16.035Z,55.29
2019-02-20T15:49:21.061Z,56.53
2019-02-20T15:54:23.108Z,56.49
2019-02-20T15:59:25.114Z,58.00
2019-02-20T16:04:27.126Z,57.37
2019-02-20T16:09:29.455Z,57.37
2019-02-20T16:14:31.470Z,55.68
2019-02-20T16:19:36.026Z,59.52
2019-02-20T16:24:38.039Z,59.49
2019-02-20T16:29:42.291Z,58.04
2019-02-20T16:34:47.104Z,58.83
2019-02-20T16:39:49.148Z,60.06
2019-02-20T16:44:51.197Z,60.85
2019-02-20T16:49:53.353Z,60.46
2019-02-20T16:54:57.057Z,59.88
2019-02-20T16:59:59.104Z,60.22
2019-02-20T17:05:01.115Z,59.51
2019-02-20T17:10:03.972Z,59.05
2019-02-20T17:15:07.633Z,60.12
2019-02-20T17:20:11.887Z,59.22
2019-02-20T17:25:16.969Z,59.62
2019-02-20T17:30:24.109Z,59.80
2019-02-20T17:35:26.176Z,60.24
2019-02-20T17:40:28.357Z,60.43
2019-02-20T17:45:30.412Z,59.91
2019-02-20T17:50:35.441Z,59.91
2019-02-20T17:55:37.571Z,60.61
2019-02-20T18:00:41.321Z,61.26
2019-02-20T18:05:45.875Z,62.27
2019-02-20T18:10:47.941Z,62.06
2019-02-20T18:15:51.762Z,62.88
2019-02-20T18:20:59.285Z,62.26
2019-02-20T18:26:01.328Z,62.24
2019-02-20T18:31:03.556Z,62.24
2019-02-20T18:36:05.707Z,61.96
2019-02-20T18:41:08.140Z,62.27
2019-02-20T18:46:10.181Z,62.31
2019-02-20T18:51:12.382Z,63.18
2019-02-20T18:56:22.284Z,63.34
2019-02-20T19:01:24.646Z,63.24
2019-02-20T19:06:26.777Z,63.87
2019-02-20T19:11:43.638Z,64.02
2019-02-20T19:17:33.578Z,65.30
2019-02-20T19:23:18.439Z,65.79
2019-02-20T19:28:44.556Z,66.44
2019-02-20T19:34:13.749Z,66.50
2019-02-20T19:39:27.094Z,66.63
2019-02-20T19:44:59.760Z,66.25
2019-02-20T19:50:34.971Z,66.46
2019-02-20T19:56:07.626Z,66.89
2019-02-20T20:01:39.895Z,67.63
2019-02-20T20:07:19.602Z,66.88
2019-02-20T20:13:20.614Z,64.89
2019-02-20T20:18:56.020Z,64.21
2019-02-20T20:24:52.867Z,64.10
2019-02-20T20:30:32.695Z,63.92
2019-02-20T20:35:47.777Z,63.39
2019-02-20T20:41:45.008Z,63.25
2019-02-20T20:47:43.832Z,63.48
2019-02-20T20:53:00.901Z,63.09
2019-02-20T20:58:27.231Z,63.09
2019-02-20T21:03:33.016Z,63.65
2019-02-20T21:09:11.926Z,64.09
2019-02-20T21:14:49.229Z,63.88
2019-02-20T21:20:13.767Z,63.99
2019-02-20T21:26:03.856Z,65.11
2019-02-20T21:31:43.771Z,64.83
2019-02-20T21:37:23.519Z,63.66
2019-02-20T21:42:50.271Z,64.63
2019-02-20T21:48:13.623Z,65.16
2019-02-20T21:54:08.235Z,65.29
2019-02-20T22:00:00.403Z,66.37
2019-02-20T22:05:29.383Z,66.42
2019-02-20T22:10:58.714Z,66.37
2019-02-20T22:16:10.638Z,66.59
2019-02-20T22:22:04.859Z,67.41
2019-02-20T22:27:48.806Z,68.27
2019-02-20T22:33:11.866Z,69.12
2019-02-20T22:38:43.679Z,69.68
2019-02-20T22:44:27.500Z,69.95
2019-02-20T22:50:11.335Z,68.58
2019-02-20T22:55:52.620Z,71.37
2019-02-20T23:01:40.922Z,71.98
2019-02-20T23:07:04.752Z,72.56
2019-02-20T23:12:35.268Z,72.38
2019-02-20T23:17:40.255Z,73.29
2019-02-20T23:22:42.272Z,73.77
2019-02-20T23:27:44.443Z,74.08
2019-02-20T23:32:46.498Z,73.82
2019-02-20T23:37:49.767Z,74.03
2019-02-20T23:42:52.022Z,75.01
2019-02-20T23:47:56.968Z,74.43
2019-02-20T23:52:59.088Z,74.57
2019-02-20T23:58:01.211Z,75.21
